Time;durP1;ratioP1;P1;durP2;ratioP2;P2;SDS_P1;SDS_P2;PMS_P1;PMS_P2;Temp;Humidity;BMP_temperature;BMP_pressure;BME280_temperature;BME280_humidity;BME280_pressure;Samples;Min_cycle;Max_cycle;Signal;HPM_P1;HPM_P2
2022/10/07 00:00:51;;;;;;;3.00;1.70;;;9.40;99.90;;;;;;4997159;28;20025;-74
2022/10/07 00:03:18;;;;;;;2.70;1.38;;;9.40;99.90;;;;;;4996885;28;20125;-74
2022/10/07 00:05:44;;;;;;;8.00;1.90;;;9.40;99.90;;;;;;5014379;28;20022;-74
2022/10/07 00:08:10;;;;;;;2.65;1.40;;;9.40;99.90;;;;;;4996857;28;20088;-74
2022/10/07 00:10:38;;;;;;;3.17;1.70;;;9.40;99.90;;;;;;5014561;28;20022;-74
2022/10/07 00:13:03;;;;;;;4.22;1.70;;;9.40;99.90;;;;;;5014192;28;20018;-74
2022/10/07 00:15:29;;;;;;;6.88;1.80;;;9.30;99.90;;;;;;4996413;28;20080;-74
2022/10/07 00:17:54;;;;;;;9.65;2.50;;;9.20;99.90;;;;;;5014172;28;20136;-74
2022/10/07 00:20:20;;;;;;;6.30;1.60;;;9.00;99.90;;;;;;5014484;28;20068;-74
2022/10/07 00:22:45;;;;;;;6.03;1.92;;;8.90;99.90;;;;;;4996452;28;20140;-74
2022/10/07 00:25:11;;;;;;;7.18;2.30;;;8.80;99.90;;;;;;5013916;28;20152;-74
2022/10/07 00:27:36;;;;;;;3.72;2.10;;;8.90;99.90;;;;;;4996436;28;20135;-74
2022/10/07 00:30:02;;;;;;;3.95;2.10;;;9.00;99.90;;;;;;4996498;28;20105;-74
2022/10/07 00:32:28;;;;;;;5.05;2.35;;;9.00;99.90;;;;;;4996527;28;20022;-74
2022/10/07 00:34:53;;;;;;;6.32;2.08;;;8.90;99.90;;;;;;4996150;28;20037;-74
2022/10/07 00:37:19;;;;;;;7.80;2.08;;;8.90;99.90;;;;;;5014379;28;20037;-74
2022/10/07 00:39:44;;;;;;;7.20;1.98;;;9.10;99.90;;;;;;5013695;28;20026;-74
2022/10/07 00:42:12;;;;;;;4.60;2.13;;;9.10;99.90;;;;;;4996953;28;20049;-74
2022/10/07 00:44:43;;;;;;;3.50;1.90;;;9.00;99.90;;;;;;4996507;28;20077;-74
2022/10/07 00:47:26;;;;;;;5.85;1.75;;;8.90;99.90;;;;;;5013704;28;20101;-74
2022/10/07 00:50:01;;;;;;;3.17;1.88;;;8.80;99.90;;;;;;4995976;28;20022;-74
2022/10/07 00:52:30;;;;;;;6.60;2.03;;;8.80;99.90;;;;;;4996896;28;20018;-74
2022/10/07 00:54:58;;;;;;;3.42;1.80;;;8.80;99.90;;;;;;4995998;28;20030;-74
2022/10/07 00:57:27;;;;;;;2.80;1.40;;;8.80;99.90;;;;;;4996731;28;20116;-74
2022/10/07 00:59:54;;;;;;;5.30;1.63;;;8.80;99.90;;;;;;4995913;28;20026;-74
2022/10/07 01:02:22;;;;;;;3.53;1.20;;;8.90;99.90;;;;;;4996467;28;20036;-74
2022/10/07 01:04:50;;;;;;;5.47;1.80;;;8.80;99.90;;;;;;5013568;28;20030;-74
2022/10/07 01:07:19;;;;;;;5.88;2.03;;;8.60;99.90;;;;;;5013747;28;20076;-74
2022/10/07 01:09:47;;;;;;;2.45;1.40;;;8.60;99.90;;;;;;4995828;28;20022;-74
2022/10/07 01:12:22;;;;;;;6.00;1.83;;;8.60;99.90;;;;;;4995776;28;20061;-74
2022/10/07 01:15:02;;;;;;;6.72;1.50;;;8.70;99.90;;;;;;4996530;28;20029;-74
2022/10/07 01:17:52;;;;;;;4.10;1.42;;;8.70;99.90;;;;;;5013471;28;20026;-74
2022/10/07 01:20:29;;;;;;;3.85;1.75;;;8.70;99.90;;;;;;5013316;28;20060;-74
2022/10/07 01:23:30;;;;;;;8.75;1.88;;;8.60;99.90;;;;;;4995768;28;20026;-74
2022/10/07 01:26:40;;;;;;;5.15;1.63;;;8.70;99.90;;;;;;5013286;28;20030;-74
2022/10/07 01:29:34;;;;;;;3.42;1.80;;;8.60;99.90;;;;;;5013038;28;20030;-74
2022/10/07 01:32:16;;;;;;;6.07;1.70;;;8.60;99.90;;;;;;5013250;28;20026;-74
2022/10/07 01:34:42;;;;;;;;;;;8.40;99.90;;;;;;5013948;28;20022;-74
2022/10/07 01:37:12;;;;;;;7.00;1.88;;;8.50;99.90;;;;;;4995455;28;19909;-74
2022/10/07 01:39:44;;;;;;;3.20;1.23;;;8.40;99.90;;;;;;4996010;28;20026;-74
2022/10/07 01:42:10;;;;;;;5.18;1.05;;;8.40;99.90;;;;;;5013143;28;20164;-74
2022/10/07 01:44:37;;;;;;;2.53;1.38;;;8.40;99.90;;;;;;4995384;28;20113;-74
2022/10/07 01:47:03;;;;;;;6.13;1.60;;;8.40;99.90;;;;;;4995843;28;20026;-74
2022/10/07 01:49:29;;;;;;;6.55;1.50;;;8.40;99.90;;;;;;4995365;28;20025;-74
2022/10/07 01:52:22;;;;;;;6.70;1.50;;;8.40;99.90;;;;;;5013581;28;20057;-74
2022/10/07 01:55:20;;;;;;;6.20;1.58;;;8.50;99.90;;;;;;5013042;28;20033;-74
2022/10/07 01:58:11;;;;;;;4.45;1.30;;;8.40;99.90;;;;;;5012972;28;20060;-74
2022/10/07 02:00:44;;;;;;;7.35;1.45;;;8.50;99.90;;;;;;4998222;28;20022;-74
2022/10/07 02:03:32;;;;;;;7.10;1.48;;;8.50;99.90;;;;;;5016318;28;20057;-74
2022/10/07 02:06:19;;;;;;;5.03;1.02;;;8.50;99.90;;;;;;5016503;28;20030;-74
2022/10/07 02:08:47;;;;;;;4.38;1.35;;;8.40;99.90;;;;;;5016480;28;20026;-74
2022/10/07 02:11:24;;;;;;;7.75;1.70;;;8.40;99.90;;;;;;4999127;28;20060;-74
2022/10/07 02:14:01;;;;;;;9.27;1.70;;;8.40;99.90;;;;;;5016466;28;20128;-74
2022/10/07 02:16:39;;;;;;;2.35;1.50;;;8.40;99.90;;;;;;4999190;28;20116;-74
2022/10/07 02:19:12;;;;;;;11.05;1.70;;;8.40;99.90;;;;;;5016643;28;20026;-74
2022/10/07 02:21:40;;;;;;;6.40;1.38;;;8.40;99.90;;;;;;4998859;28;20040;-74
2022/10/07 02:24:10;;;;;;;6.85;1.73;;;8.30;99.90;;;;;;5017384;28;20109;-74
2022/10/07 02:26:36;;;;;;;8.35;1.73;;;8.20;99.90;;;;;;4998658;28;20018;-74
2022/10/07 02:29:05;;;;;;;7.30;1.98;;;8.20;99.90;;;;;;5015925;28;20082;-74
2022/10/07 02:31:33;;;;;;;4.97;1.60;;;8.20;99.90;;;;;;5015922;28;20040;-74
2022/10/07 02:34:03;;;;;;;6.32;1.70;;;8.20;99.90;;;;;;4998390;28;20064;-74
2022/10/07 02:36:36;;;;;;;13.50;2.75;;;8.20;99.90;;;;;;4998431;28;20064;-74
2022/10/07 02:39:03;;;;;;;5.05;2.00;;;8.20;99.90;;;;;;5015890;28;20026;-74
2022/10/07 02:41:50;;;;;;;9.18;1.77;;;8.10;99.90;;;;;;5016180;28;20025;-74
2022/10/07 02:44:41;;;;;;;8.70;1.77;;;8.00;99.90;;;;;;4996527;28;20034;-74
2022/10/07 02:47:17;;;;;;;6.97;1.60;;;7.90;99.90;;;;;;4979931;28;20092;-74
2022/10/07 02:49:47;;;;;;;6.97;1.40;;;7.90;99.90;;;;;;4996126;28;20041;-74
2022/10/07 02:52:19;;;;;;;3.88;1.30;;;7.80;99.90;;;;;;4978899;28;20018;-74
2022/10/07 02:54:58;;;;;;;3.17;1.42;;;7.80;99.90;;;;;;4996185;28;20506;-74
2022/10/07 02:57:25;;;;;;;3.33;1.50;;;7.70;99.90;;;;;;4996412;28;20080;-74
2022/10/07 02:59:53;;;;;;;6.25;1.48;;;7.60;99.90;;;;;;4978581;28;20126;-75
2022/10/07 03:02:41;;;;;;;5.45;1.60;;;7.60;99.90;;;;;;4978479;28;20030;-74
2022/10/07 03:05:08;;;;;;;1.80;1.00;;;7.50;99.90;;;;;;4995911;28;20030;-75
2022/10/07 03:07:34;;;;;;;5.40;1.83;;;7.50;99.90;;;;;;4978517;28;20061;-75
2022/10/07 03:10:00;;;;;;;4.25;1.67;;;7.50;99.90;;;;;;4978999;28;20109;-75
2022/10/07 03:12:27;;;;;;;4.35;1.90;;;7.70;99.90;;;;;;4991827;28;20026;-74
2022/10/07 03:14:53;;;;;;;10.48;1.73;;;7.70;99.90;;;;;;4998959;28;20029;-74
2022/10/07 03:17:18;;;;;;;5.18;1.85;;;7.70;99.90;;;;;;5015158;28;20025;-74
2022/10/07 03:19:44;;;;;;;4.03;1.83;;;7.80;99.90;;;;;;4997558;28;20034;-74
2022/10/07 03:22:10;;;;;;;3.13;1.48;;;7.80;99.90;;;;;;5014988;28;20033;-74
2022/10/07 03:24:35;;;;;;;4.47;1.50;;;7.70;99.90;;;;;;5014997;28;20025;-74
2022/10/07 03:27:01;;;;;;;2.28;1.35;;;7.70;99.90;;;;;;4997827;28;20056;-74
2022/10/07 03:29:26;;;;;;;3.13;1.10;;;7.70;99.90;;;;;;4997567;28;20037;-74
2022/10/07 03:31:54;;;;;;;2.25;1.10;;;7.60;99.90;;;;;;4997407;28;20104;-74
2022/10/07 03:34:20;;;;;;;2.20;1.05;;;7.60;99.90;;;;;;5014920;28;20054;-74
2022/10/07 03:36:45;;;;;;;3.03;1.05;;;7.50;99.90;;;;;;4997812;28;20061;-74
2022/10/07 03:39:11;;;;;;;6.30;1.50;;;7.50;99.90;;;;;;4997540;28;20024;-74
2022/10/07 03:41:36;;;;;;;3.88;1.20;;;7.50;99.90;;;;;;4997130;28;20034;-74
2022/10/07 03:44:02;;;;;;;2.47;1.30;;;7.40;99.90;;;;;;4997476;28;20037;-74
2022/10/07 03:46:28;;;;;;;3.25;1.50;;;7.40;99.90;;;;;;5014866;28;20030;-75
2022/10/07 03:48:54;;;;;;;5.30;1.30;;;7.40;99.90;;;;;;5014665;28;20061;-74
2022/10/07 03:51:19;;;;;;;3.47;1.33;;;7.30;99.90;;;;;;4997103;28;20032;-74
2022/10/07 03:53:45;;;;;;;2.72;1.05;;;7.30;99.90;;;;;;4997015;28;20026;-74
2022/10/07 03:56:10;;;;;;;3.25;1.48;;;7.30;99.90;;;;;;4997090;28;20108;-75
2022/10/07 03:58:37;;;;;;;3.28;1.25;;;7.30;99.90;;;;;;5014478;28;20026;-75
2022/10/07 04:01:04;;;;;;;6.53;1.38;;;7.30;99.90;;;;;;4996910;28;20030;-75
2022/10/07 04:03:30;;;;;;;4.38;1.50;;;7.30;99.90;;;;;;4996820;28;20029;-75
2022/10/07 04:05:58;;;;;;;1.90;1.00;;;7.30;99.90;;;;;;4997054;28;20041;-74
2022/10/07 04:08:26;;;;;;;3.38;1.42;;;7.30;99.90;;;;;;4996683;28;20033;-74
2022/10/07 04:10:52;;;;;;;2.78;1.30;;;7.30;99.90;;;;;;4997051;28;20032;-74
2022/10/07 04:13:18;;;;;;;4.47;1.48;;;7.30;99.90;;;;;;5014447;28;20022;-74
2022/10/07 04:15:43;;;;;;;2.55;1.40;;;7.30;99.90;;;;;;4996448;28;20018;-74
2022/10/07 04:18:09;;;;;;;4.55;1.95;;;7.30;99.90;;;;;;4996628;28;20026;-74
2022/10/07 04:20:37;;;;;;;5.03;1.65;;;7.30;99.90;;;;;;4996847;28;20017;-74
2022/10/07 04:23:03;;;;;;;5.07;2.42;;;7.20;99.90;;;;;;4997004;28;20026;-73
2022/10/07 04:25:34;;;;;;;4.53;2.13;;;7.20;99.90;;;;;;4996337;28;20036;-72
2022/10/07 04:28:02;;;;;;;4.68;2.10;;;7.20;99.90;;;;;;5013786;28;20036;-73
2022/10/07 04:30:33;;;;;;;4.25;2.47;;;7.30;99.90;;;;;;4996040;28;20038;-72
2022/10/07 04:33:02;;;;;;;6.57;2.72;;;7.20;99.90;;;;;;5014006;28;20022;-72
2022/10/07 04:35:28;;;;;;;11.02;2.70;;;7.20;99.90;;;;;;4997342;28;20030;-72
2022/10/07 04:37:54;;;;;;;6.18;2.50;;;7.20;99.90;;;;;;4996288;28;20512;-72
2022/10/07 04:40:21;;;;;;;8.77;3.03;;;7.30;99.90;;;;;;5013937;28;20022;-73
2022/10/07 04:45:36;;;;;;;7.72;2.60;;;7.40;99.90;;;;;;5013716;28;20037;-73
2022/10/07 04:48:04;;;;;;;8.52;2.60;;;7.50;99.90;;;;;;4995983;28;20026;-72
2022/10/07 04:50:37;;;;;;;7.03;2.97;;;7.60;99.90;;;;;;4996006;28;20026;-72
2022/10/07 04:53:04;;;;;;;5.85;2.33;;;7.40;99.90;;;;;;5013553;28;20472;-73
2022/10/07 04:55:35;;;;;;;7.88;2.17;;;7.30;99.90;;;;;;5013650;28;20022;-73
2022/10/07 04:58:01;;;;;;;5.00;2.45;;;7.30;99.90;;;;;;4995971;28;20030;-72
2022/10/07 05:00:27;;;;;;;4.05;2.22;;;7.30;99.90;;;;;;4996313;28;20113;-73
2022/10/07 05:02:52;;;;;;;3.97;2.13;;;7.20;99.90;;;;;;4995860;28;20026;-73
2022/10/07 05:05:18;;;;;;;13.90;2.65;;;7.30;99.90;;;;;;5013384;28;20033;-73
2022/10/07 05:07:49;;;;;;;7.35;2.15;;;7.30;99.90;;;;;;5013494;28;20148;-72
2022/10/07 05:10:15;;;;;;;4.38;2.17;;;7.30;99.90;;;;;;5013367;28;20430;-72
2022/10/07 05:12:41;;;;;;;5.93;2.42;;;7.30;99.90;;;;;;4995802;28;20116;-72
2022/10/07 05:15:07;;;;;;;7.10;3.05;;;7.30;99.90;;;;;;4996709;28;20022;-72
2022/10/07 05:17:33;;;;;;;13.43;3.85;;;7.40;99.90;;;;;;4995746;28;20061;-72
2022/10/07 05:19:58;;;;;;;9.27;3.40;;;7.20;99.90;;;;;;4995552;28;20037;-72
2022/10/07 05:22:24;;;;;;;12.45;3.40;;;7.00;99.90;;;;;;4995846;28;20076;-72
2022/10/07 05:24:49;;;;;;;14.05;3.53;;;7.00;99.90;;;;;;5013501;28;20030;-72
2022/10/07 05:27:15;;;;;;;10.40;3.42;;;6.90;99.90;;;;;;4995703;28;20018;-72
2022/10/07 05:29:41;;;;;;;10.75;2.70;;;7.10;99.90;;;;;;5013317;28;20026;-72
2022/10/07 05:32:06;;;;;;;13.93;2.75;;;7.20;99.90;;;;;;4996436;28;20029;-72
2022/10/07 05:34:32;;;;;;;13.30;3.03;;;7.40;99.90;;;;;;4997530;28;20053;-72
2022/10/07 05:37:00;;;;;;;5.85;2.00;;;7.50;99.90;;;;;;5000352;28;20030;-72
2022/10/07 05:39:26;;;;;;;6.75;2.65;;;7.60;99.90;;;;;;5017029;28;20097;-72
2022/10/07 05:41:51;;;;;;;11.77;2.38;;;7.60;99.90;;;;;;5017009;28;20034;-72
2022/10/07 05:44:17;;;;;;;7.88;2.55;;;7.60;99.90;;;;;;4999705;28;20025;-73
2022/10/07 05:46:42;;;;;;;9.85;2.33;;;7.60;99.90;;;;;;5017219;28;20125;-73
2022/10/07 05:49:08;;;;;;;3.25;2.10;;;7.60;99.90;;;;;;5017380;28;20026;-72
2022/10/07 05:51:33;;;;;;;12.90;2.75;;;7.70;99.90;;;;;;4999271;28;20024;-72
2022/10/07 05:53:59;;;;;;;14.65;2.50;;;7.60;99.90;;;;;;5016799;28;20076;-73
2022/10/07 05:56:24;;;;;;;4.13;2.10;;;7.70;99.90;;;;;;5016797;28;20053;-72
2022/10/07 05:58:51;;;;;;;8.30;2.47;;;7.70;99.90;;;;;;4999159;28;20029;-72
2022/10/07 06:01:19;;;;;;;23.40;3.08;;;7.80;99.90;;;;;;4999436;28;20145;-72
2022/10/07 06:03:53;;;;;;;8.95;2.53;;;7.70;99.90;;;;;;4999680;28;20030;-73
2022/10/07 06:06:19;;;;;;;4.05;2.55;;;7.70;99.90;;;;;;4999089;28;20108;-73
2022/10/07 06:08:45;;;;;;;3.13;2.05;;;7.70;99.90;;;;;;4998884;28;20052;-73
2022/10/07 06:13:58;;;;;;;7.43;2.60;;;7.80;99.90;;;;;;5016504;28;20496;-73
2022/10/07 06:16:24;;;;;;;7.68;2.85;;;7.90;99.90;;;;;;5016438;28;20037;-73
2022/10/07 06:18:51;;;;;;;14.45;2.67;;;7.80;99.90;;;;;;5016531;28;20033;-73
2022/10/07 06:21:18;;;;;;;14.88;3.47;;;7.70;99.90;;;;;;4998784;28;20026;-72
2022/10/07 06:23:48;;;;;;;9.73;2.50;;;7.70;99.90;;;;;;4998579;28;20096;-73
2022/10/07 06:26:13;;;;;;;9.20;3.22;;;7.90;99.90;;;;;;5016112;28;20036;-73
2022/10/07 06:28:40;;;;;;;7.82;2.63;;;7.80;99.90;;;;;;4998498;28;20030;-73
2022/10/07 06:31:11;;;;;;;6.53;2.33;;;7.70;99.90;;;;;;5016455;28;20021;-73
2022/10/07 06:33:37;;;;;;;13.02;2.90;;;7.70;99.90;;;;;;4998441;28;20026;-73
2022/10/07 06:36:11;;;;;;;11.60;3.08;;;7.80;99.90;;;;;;4998466;28;20030;-73
2022/10/07 06:38:37;;;;;;;7.68;2.85;;;7.80;99.90;;;;;;5016136;28;20026;-73
2022/10/07 06:41:04;;;;;;;13.85;3.08;;;7.80;99.90;;;;;;4998321;28;20026;-73
2022/10/07 06:43:32;;;;;;;15.18;3.10;;;7.80;99.90;;;;;;4998269;28;20528;-72
2022/10/07 06:46:03;;;;;;;8.38;2.80;;;7.80;99.90;;;;;;5014544;28;20026;-73
2022/10/07 06:48:31;;;;;;;9.68;2.63;;;7.70;99.90;;;;;;4997333;28;20053;-73
2022/10/07 06:50:58;;;;;;;7.78;2.50;;;7.90;99.90;;;;;;5015141;28;20018;-73
2022/10/07 06:53:24;;;;;;;7.03;2.85;;;7.80;99.90;;;;;;5015741;28;20088;-73
2022/10/07 06:55:53;;;;;;;6.85;2.80;;;7.70;99.90;;;;;;5015921;28;20029;-73
2022/10/07 06:58:21;;;;;;;10.52;3.50;;;7.60;99.90;;;;;;4998260;28;20026;-72
2022/10/07 07:00:50;;;;;;;11.90;4.03;;;7.60;99.90;;;;;;4997926;28;20470;-73
2022/10/07 07:03:16;;;;;;;16.85;4.25;;;7.40;99.90;;;;;;4998127;28;20025;-73
2022/10/07 07:05:43;;;;;;;14.13;4.68;;;7.30;99.90;;;;;;4997918;28;20022;-73
2022/10/07 07:08:09;;;;;;;11.05;4.10;;;7.20;99.90;;;;;;4998097;28;20030;-73
2022/10/07 07:10:42;;;;;;;4.68;2.85;;;7.20;99.90;;;;;;4998974;28;20022;-73
2022/10/07 07:13:08;;;;;;;18.85;4.05;;;7.30;99.90;;;;;;4997649;28;20103;-73
2022/10/07 07:15:35;;;;;;;13.70;4.13;;;7.20;99.90;;;;;;4997789;28;20466;-73
2022/10/07 07:18:01;;;;;;;19.15;4.75;;;7.40;99.90;;;;;;4997611;28;20478;-73
2022/10/07 07:20:33;;;;;;;11.82;4.40;;;7.30;99.90;;;;;;5015023;28;20088;-73
2022/10/07 07:23:06;;;;;;;12.05;3.20;;;7.30;99.90;;;;;;4997571;28;20022;-73
2022/10/07 07:25:36;;;;;;;11.63;3.03;;;7.50;99.90;;;;;;4997361;28;20037;-73
2022/10/07 07:28:02;;;;;;;4.15;2.47;;;7.70;99.90;;;;;;4997632;28;20033;-72
2022/10/07 07:30:28;;;;;;;12.57;2.10;;;7.80;99.90;;;;;;4997370;28;20037;-72
2022/10/07 07:32:54;;;;;;;4.57;2.88;;;8.00;99.90;;;;;;5015330;28;20026;-72
2022/10/07 07:35:21;;;;;;;4.53;2.40;;;8.10;99.90;;;;;;4997363;28;20022;-72
2022/10/07 07:37:47;;;;;;;19.98;3.00;;;8.20;99.90;;;;;;5014851;28;20112;-72
2022/10/07 07:40:12;;;;;;;3.60;2.40;;;8.10;99.90;;;;;;5014924;28;20118;-72
2022/10/07 07:42:38;;;;;;;4.25;2.67;;;8.20;99.90;;;;;;4997246;28;20045;-72
2022/10/07 07:45:04;;;;;;;11.43;2.90;;;8.30;99.90;;;;;;4993601;28;20053;-72
2022/10/07 07:47:29;;;;;;;8.48;3.35;;;8.40;99.90;;;;;;4996814;28;20026;-73
2022/10/07 07:49:55;;;;;;;5.50;3.08;;;8.40;99.90;;;;;;4997167;28;20026;-73
2022/10/07 07:52:21;;;;;;;4.80;3.05;;;8.40;99.90;;;;;;5014494;28;20049;-73
2022/10/07 07:54:47;;;;;;;6.97;3.45;;;8.20;99.90;;;;;;4996437;28;20057;-72
2022/10/07 07:57:12;;;;;;;5.28;3.03;;;8.30;99.90;;;;;;5013949;28;20492;-72
2022/10/07 07:59:38;;;;;;;8.18;3.72;;;8.40;99.90;;;;;;4997034;28;20030;-73
2022/10/07 08:02:05;;;;;;;10.02;3.88;;;8.50;99.90;;;;;;5014396;28;20060;-73
2022/10/07 08:04:31;;;;;;;11.00;4.53;;;8.40;99.90;;;;;;4996955;28;20029;-73
2022/10/07 08:06:56;;;;;;;12.32;4.65;;;8.40;99.90;;;;;;4996797;28;20022;-73
2022/10/07 08:09:23;;;;;;;16.63;5.25;;;8.50;99.90;;;;;;5014270;28;20021;-73
2022/10/07 08:11:48;;;;;;;9.85;4.53;;;8.50;99.90;;;;;;4996917;28;20034;-72
2022/10/07 08:14:15;;;;;;;11.60;5.40;;;8.20;99.90;;;;;;4996540;28;20042;-73
2022/10/07 08:16:42;;;;;;;14.45;4.85;;;8.20;99.90;;;;;;5014250;28;20026;-72
2022/10/07 08:19:08;;;;;;;16.10;6.38;;;8.20;99.90;;;;;;4996504;28;20053;-73
2022/10/07 08:21:40;;;;;;;15.48;5.55;;;8.20;99.90;;;;;;4996459;28;20036;-73
2022/10/07 08:24:07;;;;;;;;;;;8.30;99.90;;;;;;4996908;28;20037;-72
2022/10/07 08:26:34;;;;;;;11.82;5.88;;;8.40;99.90;;;;;;4996462;28;19905;-72
2022/10/07 08:29:00;;;;;;;16.45;5.85;;;8.40;99.90;;;;;;5013787;28;20029;-74
2022/10/07 08:31:28;;;;;;;13.88;5.35;;;8.60;99.90;;;;;;4996106;28;20026;-73
2022/10/07 08:33:55;;;;;;;11.25;5.75;;;8.70;99.90;;;;;;4976663;28;20029;-74
2022/10/07 08:36:22;;;;;;;15.15;6.03;;;8.80;99.90;;;;;;5000960;28;20152;-73
2022/10/07 08:38:49;;;;;;;14.07;5.85;;;8.90;99.90;;;;;;5013810;28;20029;-73
2022/10/07 08:41:33;;;;;;;15.93;7.53;;;9.10;99.90;;;;;;4996244;28;20041;-72
2022/10/07 08:44:16;;;;;;;14.63;6.78;;;9.10;99.90;;;;;;5013432;28;20026;-72
2022/10/07 08:47:01;;;;;;;15.88;6.32;;;9.20;99.90;;;;;;4996079;28;20053;-72
2022/10/07 08:49:53;;;;;;;11.85;5.65;;;9.40;99.90;;;;;;5013198;28;20018;-73
2022/10/07 08:52:32;;;;;;;13.50;4.90;;;9.40;99.90;;;;;;4995338;28;20022;-72
2022/10/07 08:55:21;;;;;;;13.10;5.60;;;9.50;99.90;;;;;;4995850;28;20069;-73
2022/10/07 08:58:19;;;;;;;12.73;5.75;;;9.60;99.90;;;;;;5013527;28;20030;-73
2022/10/07 09:01:09;;;;;;;14.50;5.30;;;9.90;99.90;;;;;;5013441;28;20025;-72
2022/10/07 09:03:44;;;;;;;16.55;4.78;;;10.00;99.90;;;;;;5013311;28;20025;-72
2022/10/07 09:06:14;;;;;;;10.75;4.70;;;10.10;99.90;;;;;;4995874;28;20030;-72
2022/10/07 09:08:46;;;;;;;11.10;4.65;;;10.20;99.90;;;;;;5012843;28;20026;-72
2022/10/07 09:11:15;;;;;;;;;;;10.30;99.90;;;;;;5013652;28;20029;-73
2022/10/07 09:13:51;;;;;;;13.45;4.80;;;10.50;99.90;;;;;;5013141;28;19905;-73
2022/10/07 09:16:23;;;;;;;13.05;5.80;;;10.60;99.90;;;;;;4996061;28;20021;-73
2022/10/07 09:18:55;;;;;;;9.23;4.55;;;10.70;99.90;;;;;;4995499;28;20125;-73
2022/10/07 09:21:29;;;;;;;11.10;4.75;;;10.70;99.90;;;;;;4995947;28;20113;-73
2022/10/07 09:24:00;;;;;;;10.75;5.05;;;11.00;99.90;;;;;;5013334;28;20038;-72
2022/10/07 09:26:26;;;;;;;10.00;5.22;;;11.20;99.90;;;;;;4995891;28;20025;-73
2022/10/07 09:28:52;;;;;;;11.18;5.32;;;11.30;99.90;;;;;;4995536;28;20034;-73
2022/10/07 09:31:19;;;;;;;17.10;4.80;;;11.30;99.90;;;;;;4995721;28;20022;-72
2022/10/07 09:33:49;;;;;;;14.65;4.60;;;11.40;99.90;;;;;;4995498;28;20117;-72
2022/10/07 09:36:18;;;;;;;11.93;4.93;;;11.50;99.90;;;;;;5013204;28;20053;-73
2022/10/07 09:38:48;;;;;;;9.63;4.78;;;11.70;99.90;;;;;;5012974;28;20026;-73
2022/10/07 09:41:31;;;;;;;15.73;4.70;;;11.90;99.90;;;;;;5013083;28;20497;-74
2022/10/07 09:44:15;;;;;;;10.02;4.55;;;12.10;99.90;;;;;;5013259;28;20112;-73
2022/10/07 09:47:21;;;;;;;8.68;4.43;;;12.20;99.90;;;;;;4995540;28;20014;-73
2022/10/07 09:49:53;;;;;;;15.30;4.90;;;12.30;99.90;;;;;;5012446;28;20034;-73
2022/10/07 09:52:22;;;;;;;10.25;3.45;;;12.40;99.90;;;;;;5013081;28;20046;-73
2022/10/07 09:54:56;;;;;;;8.63;3.22;;;12.60;99.90;;;;;;4995540;28;20026;-73
2022/10/07 09:57:27;;;;;;;14.50;3.75;;;12.80;99.90;;;;;;5012908;28;20117;-73
2022/10/07 10:00:11;;;;;;;7.93;3.05;;;13.00;99.90;;;;;;4995353;28;20026;-73
2022/10/07 10:02:45;;;;;;;10.38;3.28;;;13.00;99.90;;;;;;4995556;28;20030;-73
2022/10/07 10:05:51;;;;;;;9.13;3.35;;;13.10;99.90;;;;;;5012882;28;20022;-73
2022/10/07 10:09:02;;;;;;;9.10;3.38;;;13.40;99.90;;;;;;4914397;29;20036;-73
2022/10/07 10:11:27;;;;;;;7.40;3.38;;;13.60;99.90;;;;;;4898673;29;20044;-71
2022/10/07 10:13:53;;;;;;;10.40;3.47;;;13.90;99.90;;;;;;4898638;29;20032;-71
2022/10/07 10:16:24;;;;;;;12.30;3.28;;;14.00;99.90;;;;;;4898538;29;20080;-71
2022/10/07 10:18:58;;;;;;;9.07;2.92;;;14.10;99.90;;;;;;4914325;29;20412;-71
2022/10/07 10:21:28;;;;;;;7.78;2.47;;;14.40;99.90;;;;;;4900786;29;20126;-71
2022/10/07 10:24:14;;;;;;;7.47;2.77;;;14.40;99.90;;;;;;4917821;29;20071;-72
2022/10/07 10:27:04;;;;;;;8.07;2.20;;;14.60;99.90;;;;;;4917672;29;20028;-72
2022/10/07 10:29:55;;;;;;;7.00;2.70;;;14.70;99.90;;;;;;4901539;29;20196;-74
2022/10/07 10:32:38;;;;;;;12.15;3.08;;;14.80;99.90;;;;;;4917744;29;20048;-74
2022/10/07 10:35:34;;;;;;;11.45;2.05;;;15.10;99.90;;;;;;4917657;29;20039;-75
2022/10/07 10:37:59;;;;;;;11.23;2.55;;;15.30;99.90;;;;;;4917515;29;20044;-74
2022/10/07 10:40:55;;;;;;;5.85;2.10;;;15.50;99.90;;;;;;4917622;29;20028;-74
2022/10/07 10:43:24;;;;;;;9.05;2.45;;;15.60;99.90;;;;;;4920324;28;20048;-74
2022/10/07 10:45:49;;;;;;;10.30;1.85;;;16.10;99.90;;;;;;5015823;28;20026;-74
2022/10/07 10:48:32;;;;;;;5.35;1.30;;;16.50;99.90;;;;;;4998672;28;20636;-74
2022/10/07 10:51:22;;;;;;;6.95;1.70;;;16.80;99.90;;;;;;4998425;28;20065;-74
2022/10/07 10:54:09;;;;;;;6.70;1.50;;;17.20;99.90;;;;;;4998947;28;20029;-74
2022/10/07 10:56:53;;;;;;;8.07;1.88;;;17.30;99.90;;;;;;4998228;28;20485;-75
2022/10/07 10:59:56;;;;;;;7.53;3.55;;;17.40;99.90;;;;;;4996123;28;20022;-74
2022/10/07 11:02:37;;;;;;;8.60;2.20;;;17.40;99.90;;;;;;4982645;28;20022;-74
2022/10/07 11:05:10;;;;;;;9.07;2.20;;;17.70;99.90;;;;;;4998990;28;20098;-74
2022/10/07 11:07:42;;;;;;;7.60;2.10;;;17.90;99.90;;;;;;5018277;28;20021;-75
2022/10/07 11:10:20;;;;;;;;;;;18.20;99.90;;;;;;5003945;28;20432;-75
2022/10/07 11:12:57;;;;;;;6.05;1.55;;;18.10;99.90;;;;;;4999016;28;19933;-75
2022/10/07 11:15:36;;;;;;;7.10;2.28;;;18.00;99.90;;;;;;5000044;28;20097;-75
2022/10/07 11:18:06;;;;;;;12.95;2.92;;;18.30;99.90;;;;;;5016435;28;20033;-74
2022/10/07 11:20:37;;;;;;;4.00;1.88;;;18.60;99.90;;;;;;5016445;28;20053;-74
2022/10/07 11:23:26;;;;;;;14.63;2.55;;;18.70;99.90;;;;;;5015728;28;20029;-74
2022/10/07 11:26:09;;;;;;;5.47;1.65;;;19.20;99.90;;;;;;4999016;28;20034;-75
2022/10/07 11:28:39;;;;;;;4.57;1.35;;;19.40;99.90;;;;;;4998518;28;20076;-74
2022/10/07 11:31:17;;;;;;;4.65;1.40;;;19.60;99.90;;;;;;4998103;28;20034;-74
2022/10/07 11:34:09;;;;;;;6.03;1.45;;;19.70;99.90;;;;;;5015651;28;20018;-74
2022/10/07 11:37:18;;;;;;;3.90;1.35;;;19.80;99.90;;;;;;5016128;28;20026;-74
2022/10/07 11:39:44;;;;;;;4.30;1.17;;;19.80;99.90;;;;;;4999887;28;20025;-75
2022/10/07 11:42:21;;;;;;;6.90;1.40;;;19.90;99.90;;;;;;4998692;28;20079;-74
2022/10/07 11:45:01;;;;;;;5.68;2.13;;;20.00;99.90;;;;;;5015864;28;20044;-74
2022/10/07 11:47:42;;;;;;;4.82;1.60;;;20.40;99.90;;;;;;5015544;28;20049;-74
2022/10/07 11:50:25;;;;;;;10.73;2.88;;;20.60;99.90;;;;;;4998320;28;20022;-75
2022/10/07 11:52:54;;;;;;;8.68;1.65;;;20.60;99.90;;;;;;5000987;28;20114;-75
2022/10/07 11:55:42;;;;;;;3.83;1.58;;;20.70;99.90;;;;;;4999793;28;20500;-76
2022/10/07 11:58:33;;;;;;;6.28;2.25;;;20.90;99.90;;;;;;5000112;28;20018;-74
2022/10/07 12:01:27;;;;;;;5.90;1.38;;;20.80;99.90;;;;;;5001404;28;20090;-75
2022/10/07 12:03:53;;;;;;;8.25;2.47;;;20.70;99.90;;;;;;5016502;28;20033;-75
2022/10/07 12:06:19;;;;;;;10.23;1.67;;;20.60;99.90;;;;;;4999321;28;20018;-75
2022/10/07 12:08:45;;;;;;;8.07;1.70;;;20.70;99.90;;;;;;5017061;28;20055;-75
2022/10/07 12:11:11;;;;;;;4.68;1.45;;;20.70;99.90;;;;;;4999610;28;20029;-75
2022/10/07 12:13:41;;;;;;;5.13;1.70;;;21.10;99.90;;;;;;4999786;28;20117;-75
2022/10/07 12:16:31;;;;;;;7.32;1.95;;;21.10;99.90;;;;;;4998297;28;20038;-75
2022/10/07 12:19:06;;;;;;;10.13;1.35;;;21.20;99.90;;;;;;5015114;28;20033;-74
2022/10/07 12:22:01;;;;;;;5.38;1.15;;;21.20;99.90;;;;;;5015466;28;20053;-74
2022/10/07 12:24:31;;;;;;;5.35;1.45;;;20.90;99.90;;;;;;5016016;28;20109;-74
2022/10/07 12:27:16;;;;;;;4.63;1.35;;;20.90;99.90;;;;;;4999197;28;20141;-74
2022/10/07 12:29:57;;;;;;;7.43;1.92;;;20.60;99.90;;;;;;4998706;28;20026;-74
2022/10/07 12:32:44;;;;;;;7.97;1.30;;;21.00;99.90;;;;;;4998377;28;20026;-75
2022/10/07 12:35:33;;;;;;;6.07;2.20;;;21.20;99.90;;;;;;4996933;28;20034;-74
2022/10/07 12:38:18;;;;;;;5.68;1.52;;;21.10;99.90;;;;;;4970261;28;20123;-74
2022/10/07 12:40:58;;;;;;;5.75;1.38;;;21.50;99.90;;;;;;4996353;28;20030;-74
2022/10/07 12:43:35;;;;;;;4.55;1.42;;;21.00;99.90;;;;;;5015432;28;20112;-74
2022/10/07 12:46:10;;;;;;;7.32;1.08;;;20.60;99.90;;;;;;4998527;28;20030;-74
2022/10/07 12:48:44;;;;;;;7.07;1.42;;;21.30;99.90;;;;;;4997110;28;20022;-74
2022/10/07 12:51:18;;;;;;;7.47;1.70;;;22.00;99.90;;;;;;5013366;28;20108;-75
2022/10/07 12:53:46;;;;;;;6.85;1.60;;;22.30;99.90;;;;;;4996812;28;20028;-74
2022/10/07 12:56:20;;;;;;;6.72;1.27;;;22.10;99.90;;;;;;4996536;28;20153;-74
2022/10/07 13:01:58;;;;;;;4.65;1.48;;;22.80;99.90;;;;;;5014562;28;20083;-74
2022/10/07 13:05:10;;;;;;;10.70;2.08;;;23.10;99.90;;;;;;4995900;28;20034;-74
2022/10/07 13:08:00;;;;;;;3.97;1.17;;;23.00;99.60;;;;;;4990171;28;20060;-74
2022/10/07 13:11:03;;;;;;;5.47;1.52;;;23.70;97.70;;;;;;5008202;28;20029;-74
2022/10/07 13:13:32;;;;;;;4.10;1.25;;;23.40;98.70;;;;;;5014060;28;20033;-74
2022/10/07 13:16:00;;;;;;;7.60;1.20;;;23.90;97.50;;;;;;5014065;28;20018;-74
2022/10/07 13:18:29;;;;;;;3.63;1.50;;;23.90;98.80;;;;;;5013793;28;20026;-74
2022/10/07 13:21:01;;;;;;;8.35;1.73;;;24.10;97.20;;;;;;5013207;28;20018;-74
2022/10/07 13:23:29;;;;;;;4.95;1.42;;;23.50;98.90;;;;;;5013667;28;20041;-74
2022/10/07 13:25:57;;;;;;;6.03;2.15;;;22.50;99.00;;;;;;4995778;28;20075;-74
2022/10/07 13:32:09;;;;;;;6.88;1.55;;;22.30;98.80;;;;;;5013631;28;20053;-74